Time;durP1;ratioP1;P1;durP2;ratioP2;P2;SDS_P1;SDS_P2;PMS_P1;PMS_P2;Temp;Humidity;BMP_temperature;BMP_pressure;BME280_temperature;BME280_humidity;BME280_pressure;Samples;Min_cycle;Max_cycle;Signal;HPM_P1;HPM_P2
2023/09/21 00:01:41;;;;;;;3.13;1.20;;;;;;;14.20;63.99;98853.19;10290866;28;20171;-62
2023/09/21 00:06:44;;;;;;;2.88;1.38;;;;;;;14.17;64.32;98852.63;10297377;28;20050;-62
2023/09/21 00:11:46;;;;;;;1.95;1.10;;;;;;;14.25;64.25;98842.22;10291449;28;20135;-62
2023/09/21 00:16:48;;;;;;;3.33;1.50;;;;;;;14.25;64.46;98839.59;10290213;28;20054;-62
2023/09/21 00:21:54;;;;;;;2.50;1.52;;;;;;;14.22;63.99;98845.16;10294407;28;20141;-62
2023/09/21 00:26:59;;;;;;;1.80;1.23;;;;;;;14.18;64.22;98839.34;10295150;28;20043;-62
2023/09/21 00:32:01;;;;;;;1.80;1.10;;;;;;;14.05;64.47;98835.34;10295723;28;20046;-62
2023/09/21 00:37:05;;;;;;;4.15;1.38;;;;;;;14.07;64.47;98822.88;10265652;28;20092;-62
2023/09/21 00:42:07;;;;;;;4.22;1.92;;;;;;;14.14;64.42;98822.19;10290365;28;20060;-62
2023/09/21 00:47:09;;;;;;;2.17;1.27;;;;;;;14.07;64.37;98823.72;10290282;28;20290;-62
2023/09/21 00:52:12;;;;;;;2.40;1.20;;;;;;;14.04;64.37;98810.88;10290570;28;20054;-62
2023/09/21 00:57:14;;;;;;;2.58;1.30;;;;;;;14.03;64.26;98805.72;10275467;28;20068;-62
2023/09/21 01:02:16;;;;;;;2.15;1.20;;;;;;;14.05;64.45;98803.78;10294027;28;20065;-62
2023/09/21 01:07:22;;;;;;;3.40;1.38;;;;;;;14.06;64.20;98793.16;10264985;28;20406;-62
2023/09/21 01:12:27;;;;;;;3.90;1.40;;;;;;;14.06;64.46;98790.53;10275867;28;20518;-61
2023/09/21 01:17:30;;;;;;;4.40;1.60;;;;;;;13.73;64.27;98794.44;10293749;28;20224;-61
2023/09/21 01:22:32;;;;;;;2.42;1.20;;;;;;;13.55;64.91;98792.63;10255803;28;20062;-62
2023/09/21 01:27:34;;;;;;;4.88;1.95;;;;;;;13.56;64.97;98789.84;10259294;28;20056;-62
2023/09/21 01:32:36;;;;;;;1.88;1.23;;;;;;;13.70;64.81;98781.56;10281366;28;20057;-62
2023/09/21 01:37:38;;;;;;;2.10;1.10;;;;;;;13.65;64.66;98785.56;10298273;28;20474;-62
2023/09/21 01:42:40;;;;;;;2.28;1.40;;;;;;;13.68;64.83;98785.28;10314473;28;20422;-62
2023/09/21 01:47:43;;;;;;;3.65;1.30;;;;;;;13.73;64.41;98783.09;10251623;28;20050;-62
2023/09/21 01:52:45;;;;;;;2.22;1.20;;;;;;;13.52;64.38;98783.22;10269066;28;20070;-62
2023/09/21 01:57:47;;;;;;;3.65;1.63;;;;;;;13.40;64.60;98775.56;10298491;28;20081;-62
2023/09/21 02:02:49;;;;;;;2.60;1.40;;;;;;;13.39;65.08;98769.47;10316593;28;20050;-62
2023/09/21 02:07:51;;;;;;;1.88;1.27;;;;;;;13.44;64.90;98761.22;10320543;28;20066;-62
2023/09/21 02:12:55;;;;;;;1.73;1.20;;;;;;;13.43;64.92;98755.13;10301889;28;20129;-62
2023/09/21 02:17:57;;;;;;;3.47;1.77;;;;;;;13.43;64.77;98751.72;10273776;28;20073;-62
2023/09/21 02:23:01;;;;;;;4.10;1.23;;;;;;;13.43;64.80;98746.44;10307478;28;20590;-62
2023/09/21 02:28:09;;;;;;;2.55;1.23;;;;;;;13.44;64.80;98745.47;10320079;28;20478;-62
2023/09/21 02:33:12;;;;;;;2.65;1.27;;;;;;;13.50;64.82;98739.66;10289842;28;20047;-62
2023/09/21 02:38:17;;;;;;;1.88;1.15;;;;;;;13.38;65.07;98731.06;10306690;28;20073;-62
2023/09/21 02:43:21;;;;;;;1.60;1.10;;;;;;;13.31;64.92;98735.19;10287273;28;20054;-62
2023/09/21 02:48:23;;;;;;;2.60;1.40;;;;;;;13.16;64.71;98725.25;10308629;28;20039;-62
2023/09/21 02:53:27;;;;;;;2.67;1.42;;;;;;;13.17;64.76;98716.44;10275476;28;20053;-62
2023/09/21 02:58:29;;;;;;;4.25;1.60;;;;;;;13.11;65.02;98711.72;10289633;28;20297;-62
2023/09/21 03:03:31;;;;;;;1.77;1.30;;;;;;;13.01;64.92;98708.22;10285429;28;20039;-62
2023/09/21 03:08:34;;;;;;;4.90;1.33;;;;;;;13.10;65.22;98704.81;10269602;28;20050;-62
2023/09/21 03:13:38;;;;;;;2.58;1.27;;;;;;;13.10;65.06;98695.13;10296940;28;20050;-62
2023/09/21 03:18:41;;;;;;;2.95;1.48;;;;;;;13.13;65.07;98692.22;10282386;28;20137;-62
2023/09/21 03:23:46;;;;;;;2.50;1.40;;;;;;;13.09;64.98;98688.22;10218275;28;20070;-62
2023/09/21 03:28:48;;;;;;;3.65;1.52;;;;;;;12.81;65.19;98674.09;10218476;28;20048;-62
2023/09/21 03:33:50;;;;;;;2.72;1.50;;;;;;;12.72;65.67;98664.41;10216102;28;20052;-61
2023/09/21 03:38:54;;;;;;;2.58;1.48;;;;;;;12.79;65.63;98655.06;10215026;28;20165;-62
2023/09/21 03:43:56;;;;;;;3.58;1.50;;;;;;;12.83;66.03;98659.06;10209805;28;20049;-62
2023/09/21 03:48:58;;;;;;;3.30;1.50;;;;;;;12.98;66.06;98653.41;10216914;28;20040;-62
2023/09/21 03:54:02;;;;;;;3.45;1.50;;;;;;;13.05;66.07;98641.41;10212111;28;20512;-62
2023/09/21 03:59:06;;;;;;;4.57;1.48;;;;;;;13.17;65.70;98635.03;10220471;28;20058;-62
2023/09/21 04:04:18;;;;;;;1.80;1.15;;;;;;;13.28;65.31;98634.88;10248525;28;20047;-63
2023/09/21 04:09:21;;;;;;;4.03;1.52;;;;;;;13.27;64.92;98625.38;10249526;28;20117;-63
2023/09/21 04:14:24;;;;;;;5.10;2.00;;;;;;;13.22;65.09;98614.44;10220996;28;20071;-62
2023/09/21 04:19:26;;;;;;;4.80;1.40;;;;;;;13.27;65.36;98617.47;10218210;28;20495;-63
2023/09/21 04:24:28;;;;;;;3.38;1.75;;;;;;;13.31;65.06;98613.59;10215123;28;20511;-63
2023/09/21 04:29:31;;;;;;;2.85;1.38;;;;;;;13.33;65.38;98616.91;10215388;28;20058;-62
2023/09/21 04:34:33;;;;;;;3.58;1.08;;;;;;;13.45;65.17;98614.03;10217440;28;20035;-62
2023/09/21 04:39:35;;;;;;;2.90;1.27;;;;;;;13.46;64.94;98610.44;10212252;28;20517;-63
2023/09/21 04:44:38;;;;;;;2.40;1.20;;;;;;;13.41;64.74;98609.97;10255958;28;20508;-62
2023/09/21 04:49:40;;;;;;;1.88;1.10;;;;;;;13.30;64.67;98611.94;10215714;28;20036;-62
2023/09/21 04:54:42;;;;;;;3.17;1.85;;;;;;;13.24;64.66;98612.50;10216708;28;20067;-62
2023/09/21 04:59:44;;;;;;;2.60;1.40;;;;;;;12.88;64.94;98606.97;10215642;28;20051;-62
2023/09/21 05:04:47;;;;;;;3.90;1.70;;;;;;;12.89;65.47;98613.91;10216355;28;20090;-62
2023/09/21 05:09:50;;;;;;;2.40;1.30;;;;;;;13.21;65.32;98610.16;10213894;28;20426;-62
2023/09/21 05:14:52;;;;;;;2.90;1.50;;;;;;;13.25;65.14;98601.03;10214609;28;20332;-62
2023/09/21 05:19:54;;;;;;;4.28;1.63;;;;;;;13.31;65.36;98601.28;10215679;28;20055;-62
2023/09/21 05:24:57;;;;;;;3.65;1.73;;;;;;;13.47;65.23;98608.63;10293244;28;20054;-63
2023/09/21 05:30:03;;;;;;;10.98;2.95;;;;;;;13.50;65.26;98609.16;10296124;28;20137;-62
2023/09/21 05:35:08;;;;;;;2.58;1.75;;;;;;;13.57;65.11;98609.44;10295396;28;20397;-62
2023/09/21 05:40:11;;;;;;;3.47;1.30;;;;;;;13.61;65.22;98608.19;10276374;28;20046;-62
2023/09/21 05:45:13;;;;;;;10.43;2.00;;;;;;;13.67;65.14;98613.69;10279087;28;20127;-63
2023/09/21 05:50:15;;;;;;;2.70;1.50;;;;;;;13.61;65.21;98605.56;10295143;28;20046;-63
2023/09/21 05:55:17;;;;;;;3.78;1.92;;;;;;;13.79;64.93;98611.72;10295881;28;20050;-62
2023/09/21 06:00:22;;;;;;;5.20;1.58;;;;;;;13.76;65.08;98604.94;10294928;28;20082;-63
2023/09/21 06:05:25;;;;;;;2.03;1.33;;;;;;;13.63;65.64;98598.34;10279188;28;20069;-63
2023/09/21 06:10:30;;;;;;;2.92;1.73;;;;;;;13.74;65.34;98600.78;10297726;28;20555;-63
2023/09/21 06:15:32;;;;;;;4.82;1.70;;;;;;;13.74;65.34;98612.13;10271510;28;20050;-63
2023/09/21 06:20:34;;;;;;;4.45;1.50;;;;;;;13.87;65.25;98601.31;10298747;28;20135;-62
2023/09/21 06:25:37;;;;;;;2.67;1.35;;;;;;;13.97;64.97;98593.38;10299882;28;20986;-62
2023/09/21 06:30:39;;;;;;;6.32;1.67;;;;;;;14.18;64.81;98599.25;10278430;28;20237;-63
2023/09/21 06:35:42;;;;;;;10.77;1.77;;;;;;;14.23;64.91;98595.19;10295186;28;20046;-62
2023/09/21 06:40:44;;;;;;;13.35;2.10;;;;;;;14.28;64.69;98605.28;10298754;28;20065;-63
2023/09/21 06:45:46;;;;;;;4.20;1.80;;;;;;;14.38;64.58;98600.78;10296461;28;20051;-62
2023/09/21 06:50:48;;;;;;;5.32;1.60;;;;;;;14.51;64.23;98596.84;10277490;28;20034;-62
2023/09/21 06:55:50;;;;;;;41.47;5.32;;;;;;;14.64;64.27;98591.22;10301149;28;20466;-62
2023/09/21 07:00:52;;;;;;;16.10;2.97;;;;;;;14.80;64.12;98607.16;10294160;28;20061;-62
2023/09/21 07:05:54;;;;;;;14.50;3.25;;;;;;;15.01;63.62;98598.97;10280486;28;20039;-63
2023/09/21 07:10:58;;;;;;;10.05;2.20;;;;;;;15.25;63.63;98601.78;10301197;28;20494;-62
2023/09/21 07:16:00;;;;;;;11.18;2.28;;;;;;;15.30;63.71;98591.63;10300335;28;20040;-62
2023/09/21 07:21:03;;;;;;;11.38;1.92;;;;;;;15.52;63.56;98587.69;10276369;28;20161;-63
2023/09/21 07:26:05;;;;;;;8.23;2.58;;;;;;;15.80;63.62;98576.00;10299136;28;20168;-62
2023/09/21 07:31:09;;;;;;;22.08;4.53;;;;;;;16.23;62.70;98571.41;10281836;28;20047;-62
2023/09/21 07:36:11;;;;;;;10.07;2.25;;;;;;;16.69;62.22;98564.78;10297532;28;20053;-63
2023/09/21 07:41:13;;;;;;;13.65;2.20;;;;;;;16.80;62.00;98567.09;10297405;28;20108;-62
2023/09/21 07:46:15;;;;;;;7.13;1.80;;;;;;;16.95;61.80;98562.00;10296694;28;20051;-63
2023/09/21 07:51:19;;;;;;;4.80;1.60;;;;;;;17.06;61.78;98556.38;10288870;28;20461;-63
2023/09/21 07:56:21;;;;;;;4.80;1.60;;;;;;;17.20;61.47;98558.34;10277050;28;20050;-62
2023/09/21 08:01:26;;;;;;;5.63;1.67;;;;;;;17.55;60.63;98555.34;10280769;28;20058;-63
2023/09/21 08:06:28;;;;;;;4.43;1.88;;;;;;;17.89;60.17;98556.91;10294291;28;20042;-63
2023/09/21 08:11:30;;;;;;;4.43;1.42;;;;;;;17.95;59.75;98557.06;10278843;28;20421;-62
2023/09/21 08:16:32;;;;;;;4.88;1.58;;;;;;;17.96;59.84;98568.44;10280218;28;20050;-63
2023/09/21 08:21:35;;;;;;;3.03;1.52;;;;;;;18.27;59.43;98566.69;10296123;28;20193;-63
2023/09/21 08:26:37;;;;;;;4.93;2.10;;;;;;;18.52;58.96;98560.28;10312455;28;20053;-63
2023/09/21 08:31:41;;;;;;;8.10;2.92;;;;;;;18.78;58.69;98549.34;10298306;28;20138;-63
2023/09/21 08:36:44;;;;;;;4.78;1.80;;;;;;;18.87;58.67;98546.44;10295552;28;20054;-63
2023/09/21 08:41:48;;;;;;;3.40;1.58;;;;;;;18.86;58.81;98547.47;10288419;28;20682;-63
2023/09/21 08:46:52;;;;;;;4.80;2.05;;;;;;;18.85;59.41;98537.06;10295394;28;20469;-63
2023/09/21 08:51:57;;;;;;;2.45;1.40;;;;;;;18.94;59.41;98541.25;10292178;28;20198;-62
2023/09/21 08:57:01;;;;;;;6.32;1.63;;;;;;;18.89;59.73;98533.03;10294561;28;20492;-63
2023/09/21 09:02:03;;;;;;;2.80;1.58;;;;;;;18.77;59.65;98532.63;10288498;28;20058;-63
2023/09/21 09:07:06;;;;;;;4.13;1.92;;;;;;;18.88;59.53;98534.03;10294746;28;20045;-63
2023/09/21 09:12:24;;;;;;;17.33;2.90;;;;;;;18.80;58.78;98524.34;10297417;28;20215;-62
2023/09/21 09:17:30;;;;;;;5.60;2.20;;;;;;;18.85;58.59;98526.44;10279723;28;20045;-62
2023/09/21 09:22:36;;;;;;;5.95;2.35;;;;;;;18.71;58.70;98511.34;10295338;28;20054;-62
2023/09/21 09:27:41;;;;;;;3.88;1.85;;;;;;;18.80;59.00;98503.13;10279237;28;20050;-62
2023/09/21 09:32:47;;;;;;;5.88;2.15;;;;;;;18.97;58.69;98486.09;10367730;28;20455;-62
2023/09/21 09:37:49;;;;;;;3.30;1.67;;;;;;;19.36;58.24;98491.19;10296244;28;20309;-63
2023/09/21 09:42:51;;;;;;;3.70;1.67;;;;;;;19.72;57.60;98475.41;10297960;28;20068;-62
2023/09/21 09:47:56;;;;;;;13.90;2.60;;;;;;;20.03;58.01;98458.25;10374936;28;20092;-62
2023/09/21 09:53:01;;;;;;;6.45;1.85;;;;;;;20.39;57.98;98455.59;10296603;28;20042;-63
2023/09/21 09:58:05;;;;;;;5.18;1.85;;;;;;;20.56;57.64;98456.16;10319919;28;20505;-63
2023/09/21 10:03:10;;;;;;;4.07;1.85;;;;;;;20.75;57.58;98443.06;10300485;28;20046;-63
2023/09/21 10:08:13;;;;;;;3.55;1.83;;;;;;;20.96;57.51;98451.00;10301400;28;20119;-63
2023/09/21 10:13:16;;;;;;;5.78;1.88;;;;;;;20.87;57.30;98444.19;10302293;28;20115;-63
2023/09/21 10:18:36;;;;;;;8.82;1.75;;;;;;;20.69;56.86;98430.56;10317342;28;20139;-63
2023/09/21 10:23:57;;;;;;;5.70;1.87;;;;;;;20.71;57.50;98431.19;10302119;28;20046;-62
2023/09/21 10:29:03;;;;;;;4.13;1.52;;;;;;;20.87;57.31;98422.09;10300214;28;20418;-63
2023/09/21 10:34:10;;;;;;;4.57;2.28;;;;;;;20.90;56.54;98422.56;10313666;28;20043;-63
2023/09/21 10:39:12;;;;;;;5.60;1.40;;;;;;;20.95;56.45;98422.78;10299133;28;20124;-63
2023/09/21 10:44:53;;;;;;;3.50;1.42;;;;;;;21.02;56.60;98423.66;10300885;28;20046;-62
2023/09/21 10:50:12;;;;;;;2.78;1.50;;;;;;;21.10;56.78;98428.00;10315011;28;20495;-62
2023/09/21 10:55:18;;;;;;;3.40;1.45;;;;;;;21.03;57.07;98417.31;10297814;28;20058;-62
2023/09/21 11:00:21;;;;;;;7.25;1.65;;;;;;;21.12;57.00;98417.16;10299678;28;20046;-63
2023/09/21 11:05:26;;;;;;;3.10;1.50;;;;;;;21.30;56.85;98396.19;10300180;28;20046;-62
2023/09/21 11:10:28;;;;;;;3.47;1.77;;;;;;;21.63;55.89;98386.56;10299349;28;20042;-63
2023/09/21 11:15:32;;;;;;;3.10;1.70;;;;;;;21.76;55.70;98370.66;10297908;28;20070;-62
2023/09/21 11:20:34;;;;;;;5.53;1.73;;;;;;;22.09;54.72;98366.25;10299696;28;20085;-62
2023/09/21 11:25:36;;;;;;;3.13;1.30;;;;;;;22.27;54.08;98361.13;10299092;28;20047;-63
2023/09/21 11:30:42;;;;;;;4.65;1.80;;;;;;;22.26;54.20;98340.88;10300205;28;20046;-62
2023/09/21 11:35:44;;;;;;;2.80;1.17;;;;;;;22.49;54.10;98346.63;10299716;28;20039;-63
2023/09/21 11:40:49;;;;;;;4.30;1.30;;;;;;;22.74;53.70;98338.03;10297701;28;20520;-63
2023/09/21 11:45:52;;;;;;;3.03;1.48;;;;;;;22.79;53.93;98319.53;10281782;28;20130;-62
2023/09/21 11:50:55;;;;;;;4.40;1.55;;;;;;;22.76;54.13;98314.66;10300855;28;20046;-62
2023/09/21 11:55:57;;;;;;;3.47;1.30;;;;;;;22.79;54.24;98314.22;10300396;28;20654;-63
2023/09/21 12:06:07;;;;;;;2.47;1.25;;;;;;;23.32;52.67;98300.53;10300123;28;20140;-62
2023/09/21 12:11:11;;;;;;;3.08;1.50;;;;;;;23.62;52.15;98300.81;10299698;28;20494;-62
2023/09/21 12:16:13;;;;;;;4.25;1.55;;;;;;;23.97;51.66;98279.84;10301093;28;20520;-62
2023/09/21 12:21:20;;;;;;;4.80;1.45;;;;;;;24.15;51.01;98266.56;10297612;28;20553;-62
2023/09/21 12:26:22;;;;;;;2.08;1.20;;;;;;;24.37;50.22;98262.47;10296092;28;20054;-62
2023/09/21 12:31:25;;;;;;;3.17;1.13;;;;;;;24.45;49.66;98248.81;10292596;28;20145;-63
2023/09/21 12:36:33;;;;;;;4.57;1.20;;;;;;;24.24;49.50;98233.22;10287864;28;20045;-63
2023/09/21 12:41:46;;;;;;;3.05;1.20;;;;;;;23.78;49.77;98256.78;10273586;28;20543;-63
2023/09/21 12:46:48;;;;;;;2.35;1.08;;;;;;;23.51;49.83;98258.81;10291743;28;20046;-62
2023/09/21 12:51:51;;;;;;;1.92;1.13;;;;;;;23.15;50.47;98237.19;10295445;28;20049;-62
2023/09/21 12:56:53;;;;;;;2.35;1.38;;;;;;;23.21;50.33;98215.00;10287269;28;20050;-63
2023/09/21 13:01:56;;;;;;;2.25;1.30;;;;;;;23.49;50.14;98212.84;10278409;28;20183;-62
2023/09/21 13:06:59;;;;;;;2.30;1.20;;;;;;;23.86;49.55;98198.56;10269880;28;20054;-63
2023/09/21 13:12:01;;;;;;;2.28;1.13;;;;;;;23.75;49.58;98185.94;10294696;28;20042;-63
2023/09/21 13:17:04;;;;;;;4.50;1.50;;;;;;;23.52;49.76;98171.53;10291474;28;20054;-63
2023/09/21 13:22:08;;;;;;;2.88;1.15;;;;;;;23.29;50.15;98172.06;10282840;28;20063;-63
2023/09/21 13:27:11;;;;;;;2.45;1.45;;;;;;;23.41;49.71;98165.06;10281872;28;20532;-62
2023/09/21 13:32:13;;;;;;;4.07;1.65;;;;;;;23.22;49.74;98158.78;10298525;28;20046;-62
2023/09/21 13:37:15;;;;;;;2.15;1.35;;;;;;;23.29;49.76;98145.38;10279351;28;20529;-63
2023/09/21 13:42:17;;;;;;;3.03;1.50;;;;;;;23.34;49.63;98146.41;10297522;28;20054;-63
2023/09/21 13:47:19;;;;;;;4.15;1.75;;;;;;;23.32;49.65;98134.31;10295642;28;20042;-63
2023/09/21 13:52:21;;;;;;;2.45;1.50;;;;;;;23.18;49.70;98130.91;10298292;28;20046;-64
2023/09/21 13:57:29;;;;;;;2.40;1.20;;;;;;;23.11;49.76;98126.63;10317912;28;20245;-64
2023/09/21 14:02:31;;;;;;;4.55;1.40;;;;;;;22.98;49.49;98116.06;10303595;28;20050;-63
2023/09/21 14:07:33;;;;;;;4.68;1.75;;;;;;;23.02;49.75;98118.09;10303201;28;20046;-63
2023/09/21 14:12:36;;;;;;;2.40;1.45;;;;;;;23.20;49.11;98112.03;10302318;28;20051;-63
2023/09/21 14:17:39;;;;;;;2.95;1.42;;;;;;;23.38;49.31;98102.25;10299051;28;20366;-63
2023/09/21 14:22:42;;;;;;;2.25;1.20;;;;;;;23.35;48.94;98096.53;10299574;28;20517;-63
2023/09/21 14:27:44;;;;;;;3.47;1.60;;;;;;;23.05;48.97;98076.81;10279844;28;20133;-62
2023/09/21 14:32:46;;;;;;;3.45;1.40;;;;;;;23.05;49.05;98084.81;10294198;28;20460;-62
2023/09/21 14:37:49;;;;;;;4.78;2.25;;;;;;;23.08;49.19;98087.91;10298541;28;20049;-63
2023/09/21 14:42:51;;;;;;;4.45;1.77;;;;;;;22.87;49.22;98082.91;10298096;28;20243;-62
2023/09/21 14:47:54;;;;;;;9.25;3.42;;;;;;;22.77;50.04;98087.88;10300231;28;20404;-63
2023/09/21 14:52:56;;;;;;;10.15;3.17;;;;;;;22.72;50.25;98089.53;10280011;28;20050;-62
2023/09/21 14:58:00;;;;;;;3.33;1.60;;;;;;;22.75;50.23;98094.44;10302000;28;20046;-62
2023/09/21 15:03:03;;;;;;;2.05;1.30;;;;;;;22.87;49.94;98079.41;10296997;28;20046;-62
2023/09/21 15:08:05;;;;;;;3.75;1.45;;;;;;;22.89;49.93;98064.00;10296786;28;20585;-62
2023/09/21 15:13:14;;;;;;;3.35;1.67;;;;;;;22.95;49.67;98063.16;10298685;28;20111;-62
2023/09/21 15:18:17;;;;;;;12.52;2.33;;;;;;;23.12;49.73;98057.09;10296972;28;20042;-63
2023/09/21 15:23:22;;;;;;;5.25;1.67;;;;;;;23.06;49.48;98054.47;10280261;28;20067;-63
2023/09/21 15:28:27;;;;;;;4.13;1.85;;;;;;;22.94;49.95;98049.03;10289015;28;20043;-63
2023/09/21 15:33:29;;;;;;;6.18;2.30;;;;;;;22.94;49.98;98053.53;10282634;28;20096;-63
2023/09/21 15:38:35;;;;;;;3.35;1.70;;;;;;;22.74;49.83;98050.19;10296747;28;20536;-62
2023/09/21 15:43:37;;;;;;;7.72;2.10;;;;;;;22.54;50.06;98048.41;10281587;28;20133;-63
2023/09/21 15:48:39;;;;;;;3.10;1.42;;;;;;;22.45;50.15;98036.34;10278442;28;20517;-63
2023/09/21 15:53:42;;;;;;;4.28;1.70;;;;;;;22.24;50.24;98023.34;10294807;28;20512;-63
2023/09/21 15:58:44;;;;;;;5.35;1.80;;;;;;;22.22;50.53;98011.28;10288210;28;20046;-62
2023/09/21 16:03:48;;;;;;;6.13;1.73;;;;;;;22.07;50.63;98003.53;10268860;28;20047;-63
2023/09/21 16:08:50;;;;;;;6.03;2.20;;;;;;;21.96;50.80;97993.53;10297712;28;20047;-63
2023/09/21 16:13:52;;;;;;;5.25;1.77;;;;;;;21.83;50.93;97978.44;10297904;28;20078;-63
2023/09/21 16:18:54;;;;;;;2.85;1.33;;;;;;;21.74;50.92;97962.91;10309868;28;20046;-62
2023/09/21 16:23:56;;;;;;;2.70;1.10;;;;;;;21.61;51.33;97963.75;10311020;28;20398;-63
2023/09/21 16:28:59;;;;;;;3.17;1.25;;;;;;;21.46;51.52;97965.00;10260502;28;20042;-63
2023/09/21 16:34:03;;;;;;;0.90;0.77;;;;;;;21.39;51.84;97964.22;10296477;28;20068;-63
2023/09/21 16:39:05;;;;;;;1.58;0.88;;;;;;;21.30;52.06;97968.09;10275066;28;20123;-63
2023/09/21 16:44:08;;;;;;;1.52;0.95;;;;;;;21.26;51.84;97972.19;10295813;28;20042;-63
2023/09/21 16:49:11;;;;;;;2.78;0.90;;;;;;;21.17;52.05;97958.28;10297867;28;20137;-63
2023/09/21 16:54:13;;;;;;;3.25;1.20;;;;;;;21.09;52.36;97963.81;10294804;28;20047;-63
2023/09/21 16:59:18;;;;;;;1.45;0.85;;;;;;;21.11;52.29;97966.28;10298496;28;20050;-63
2023/09/21 17:04:22;;;;;;;1.65;0.95;;;;;;;21.07;52.07;97964.03;10280801;28;20406;-63
2023/09/21 17:09:25;;;;;;;1.27;0.90;;;;;;;21.07;52.25;97952.56;10296529;28;20046;-61
2023/09/21 17:14:28;;;;;;;1.08;0.70;;;;;;;21.00;52.36;97939.31;10297202;28;20099;-61
2023/09/21 17:19:31;;;;;;;3.30;1.10;;;;;;;20.91;52.36;97942.34;10293043;28;20069;-61
2023/09/21 17:24:34;;;;;;;2.38;0.90;;;;;;;20.86;52.23;97950.13;10291105;28;20054;-61
2023/09/21 17:29:37;;;;;;;2.63;1.02;;;;;;;19.58;58.59;98201.25;10261929;28;20127;-61
2023/09/21 17:34:40;;;;;;;2.35;1.02;;;;;;;18.50;60.32;98163.31;10293005;28;20050;-61
2023/09/21 17:39:42;;;;;;;2.30;0.52;;;;;;;18.04;60.37;98156.56;10274811;28;20482;-61
2023/09/21 17:44:45;;;;;;;1.70;0.90;;;;;;;17.88;62.50;98148.78;10293691;28;20219;-61
2023/09/21 17:49:47;;;;;;;1.15;0.77;;;;;;;17.80;61.69;98154.97;10293317;28;20037;-61
2023/09/21 17:54:49;;;;;;;1.58;0.93;;;;;;;17.88;61.91;98164.66;10288991;28;20046;-61
2023/09/21 17:59:52;;;;;;;1.13;0.57;;;;;;;17.84;62.44;98166.84;10290580;28;20119;-61
2023/09/21 18:04:55;;;;;;;0.85;0.60;;;;;;;17.87;62.72;98159.56;10278865;28;20049;-61
2023/09/21 18:09:57;;;;;;;10.98;1.60;;;;;;;17.80;63.04;98162.09;10295587;28;20042;-61
2023/09/21 18:14:59;;;;;;;3.38;0.88;;;;;;;17.84;63.39;98172.13;10289152;28;20109;-61
2023/09/21 18:20:03;;;;;;;2.22;0.93;;;;;;;17.74;64.03;98162.81;10296592;28;20478;-61
2023/09/21 18:25:10;;;;;;;1.08;0.60;;;;;;;17.83;63.87;98173.13;10296814;28;20099;-61
2023/09/21 18:30:13;;;;;;;1.17;0.57;;;;;;;17.89;63.86;98174.25;10299025;28;20038;-61
2023/09/21 18:35:19;;;;;;;0.85;0.50;;;;;;;17.95;64.14;98193.84;10300743;28;20110;-61
2023/09/21 18:40:22;;;;;;;0.77;0.60;;;;;;;17.99;64.05;98205.72;10294969;28;20473;-61
2023/09/21 18:45:24;;;;;;;1.10;0.50;;;;;;;18.04;64.20;98216.56;10265462;28;20055;-61
2023/09/21 18:50:26;;;;;;;1.23;0.73;;;;;;;18.03;64.56;98252.81;10274594;28;20050;-61
2023/09/21 18:55:29;;;;;;;1.52;0.47;;;;;;;17.97;64.65;98242.09;10269200;28;20048;-61
2023/09/21 19:00:33;;;;;;;0.82;0.50;;;;;;;17.95;64.59;98252.03;10268609;28;20053;-61
2023/09/21 19:05:35;;;;;;;1.45;0.60;;;;;;;17.93;64.63;98277.84;10299621;28;20324;-61
2023/09/21 19:10:37;;;;;;;1.80;0.63;;;;;;;17.86;64.86;98280.38;10300172;28;20414;-60
2023/09/21 19:15:40;;;;;;;2.60;0.50;;;;;;;17.80;64.91;98281.09;10296946;28;20051;-61
2023/09/21 19:20:42;;;;;;;1.05;0.40;;;;;;;17.71;65.36;98282.97;10301407;28;20089;-60
2023/09/21 19:25:45;;;;;;;0.52;0.40;;;;;;;17.62;65.56;98285.84;10299046;28;20046;-60
2023/09/21 19:30:50;;;;;;;2.25;0.55;;;;;;;17.55;65.81;98261.94;10294852;28;20054;-61
2023/09/21 19:35:54;;;;;;;0.55;0.50;;;;;;;17.54;65.67;98264.75;10299697;28;20546;-61
2023/09/21 19:40:57;;;;;;;1.17;0.40;;;;;;;17.51;65.72;98255.34;10277905;28;20051;-61
2023/09/21 19:45:59;;;;;;;3.50;0.60;;;;;;;17.57;65.83;98259.09;10296210;28;20054;-61
2023/09/21 19:51:01;;;;;;;0.75;0.45;;;;;;;17.49;65.54;98236.19;10294525;28;20099;-61
2023/09/21 19:56:05;;;;;;;3.20;0.65;;;;;;;17.48;65.30;98221.34;10296159;28;20031;-60
2023/09/21 20:01:08;;;;;;;3.35;0.80;;;;;;;17.53;65.71;98218.16;10267698;28;20054;-61
2023/09/21 20:06:11;;;;;;;1.60;0.85;;;;;;;17.53;65.53;98226.91;10294479;28;20486;-61
2023/09/21 20:11:16;;;;;;;1.33;0.63;;;;;;;17.51;65.69;98233.38;10298054;28;20053;-61
2023/09/21 20:16:19;;;;;;;1.67;0.90;;;;;;;17.42;66.50;98227.34;10279003;28;20046;-61
2023/09/21 20:21:22;;;;;;;1.92;1.10;;;;;;;17.48;66.36;98249.59;10265144;28;20235;-61
2023/09/21 20:26:24;;;;;;;2.05;1.30;;;;;;;17.39;66.29;98245.34;10289740;28;20050;-61
2023/09/21 20:31:27;;;;;;;2.78;0.73;;;;;;;17.41;66.51;98251.28;10279335;28;20046;-61
2023/09/21 20:36:30;;;;;;;1.48;1.00;;;;;;;17.36;66.46;98270.34;10285699;28;20039;-61
2023/09/21 20:41:32;;;;;;;2.72;0.82;;;;;;;17.28;66.60;98290.66;10292106;28;20050;-61
2023/09/21 20:46:35;;;;;;;1.30;1.05;;;;;;;17.29;67.16;98303.69;10290957;28;20461;-61
2023/09/21 20:51:38;;;;;;;0.75;0.70;;;;;;;17.38;66.81;98307.97;10286606;28;20074;-60
2023/09/21 20:56:40;;;;;;;0.30;0.30;;;;;;;17.46;66.77;98318.50;10288883;28;20039;-61
2023/09/21 21:01:43;;;;;;;2.95;0.50;;;;;;;17.47;66.79;98328.06;10290487;28;20091;-61
2023/09/21 21:06:45;;;;;;;2.20;0.88;;;;;;;17.41;66.58;98320.00;10291579;28;20046;-61
2023/09/21 21:11:48;;;;;;;3.25;1.00;;;;;;;17.25;66.81;98307.69;10271440;28;20042;-61
2023/09/21 21:16:50;;;;;;;0.98;0.60;;;;;;;17.20;66.73;98335.63;10278961;28;20354;-61
2023/09/21 21:21:52;;;;;;;0.52;0.50;;;;;;;17.25;66.97;98333.25;10265368;28;20442;-61
2023/09/21 21:26:54;;;;;;;0.55;0.55;;;;;;;17.10;67.08;98330.50;10297388;28;20500;-60
2023/09/21 21:31:57;;;;;;;0.90;0.47;;;;;;;16.96;67.12;98323.31;10297174;28;20046;-60
2023/09/21 21:36:59;;;;;;;0.68;0.40;;;;;;;16.82;67.19;98347.78;10296422;28;20031;-60
2023/09/21 21:42:01;;;;;;;0.65;0.32;;;;;;;16.84;66.69;98341.34;10272000;28;20050;-61
2023/09/21 21:47:04;;;;;;;0.63;0.50;;;;;;;16.88;66.20;98347.09;10286903;28;20046;-60
2023/09/21 21:52:07;;;;;;;0.47;0.38;;;;;;;16.83;66.46;98360.81;10287673;28;20073;-60
2023/09/21 21:57:10;;;;;;;0.57;0.57;;;;;;;16.60;66.41;98381.00;10286971;28;20042;-61
2023/09/21 22:02:12;;;;;;;1.10;0.43;;;;;;;16.58;66.45;98367.16;10282289;28;20058;-60
2023/09/21 22:07:14;;;;;;;0.55;0.40;;;;;;;16.56;66.24;98355.94;10302399;28;20050;-60
2023/09/21 22:12:18;;;;;;;1.00;0.43;;;;;;;16.36;66.58;98348.50;10303725;28;20096;-60
2023/09/21 22:17:20;;;;;;;0.55;0.45;;;;;;;16.11;67.21;98342.41;10301959;28;20080;-60
2023/09/21 22:22:23;;;;;;;1.27;0.47;;;;;;;16.15;67.38;98355.09;10285936;28;20062;-60
2023/09/21 22:27:25;;;;;;;1.50;0.75;;;;;;;16.32;67.04;98349.81;10286055;28;20144;-60
2023/09/21 22:32:27;;;;;;;0.77;0.38;;;;;;;16.28;67.01;98349.34;10300641;28;20039;-60
2023/09/21 22:37:29;;;;;;;3.63;0.45;;;;;;;16.20;66.96;98344.06;10284636;28;20053;-60
2023/09/21 22:42:32;;;;;;;1.75;0.63;;;;;;;16.24;66.58;98345.38;10302690;28;20216;-61
2023/09/21 22:47:49;;;;;;;0.70;0.35;;;;;;;16.15;66.31;98336.63;10302181;28;20121;-61
2023/09/21 22:52:53;;;;;;;0.60;0.57;;;;;;;16.18;66.71;98338.13;10269840;28;20055;-61
2023/09/21 22:57:56;;;;;;;0.70;0.45;;;;;;;16.12;66.71;98349.34;10301145;28;20494;-61
2023/09/21 23:02:59;;;;;;;0.63;0.50;;;;;;;15.98;66.67;98361.34;10300412;28;20051;-60
2023/09/21 23:08:01;;;;;;;0.30;0.30;;;;;;;15.93;66.75;98366.28;10302402;28;20063;-60
2023/09/21 23:13:06;;;;;;;0.68;0.45;;;;;;;15.98;66.57;98356.06;10285241;28;20198;-60
2023/09/21 23:18:08;;;;;;;1.38;0.30;;;;;;;15.96;66.37;98357.22;10315714;28;20038;-60
2023/09/21 23:23:11;;;;;;;2.28;0.47;;;;;;;16.01;66.41;98365.47;10300106;28;20054;-60
2023/09/21 23:28:13;;;;;;;0.75;0.45;;;;;;;15.87;66.37;98371.38;10300312;28;20042;-61
2023/09/21 23:33:15;;;;;;;1.40;0.93;;;;;;;15.84;66.71;98375.16;10300086;28;20084;-60